createdAt,value
2022-11-19T00:03:36.957Z,88.27
2022-11-19T00:13:43.788Z,86.53
2022-11-19T00:23:47.228Z,85.30
2022-11-19T00:33:54.319Z,85.23
2022-11-19T00:43:57.861Z,91.77
2022-11-19T00:54:02.649Z,91.23
2022-11-19T01:04:07.112Z,86.77
2022-11-19T01:14:12.060Z,89.03
2022-11-19T01:24:15.513Z,87.60
2022-11-19T01:34:20.293Z,87.03
2022-11-19T01:45:04.319Z,86.40
2022-11-19T01:55:10.982Z,86.43
2022-11-19T02:05:14.641Z,89.53
2022-11-19T02:15:32.934Z,82.70
2022-11-19T02:25:58.369Z,86.50
2022-11-19T02:36:14.232Z,83.03
2022-11-19T02:46:19.305Z,83.77
2022-11-19T02:56:52.983Z,87.00
2022-11-19T03:06:59.674Z,87.30
2022-11-19T03:17:14.188Z,87.07
2022-11-19T03:27:25.706Z,88.50
2022-11-19T03:37:34.979Z,85.20
2022-11-19T03:47:41.981Z,88.87
2022-11-19T03:57:47.227Z,83.73
2022-11-19T04:07:50.730Z,83.40
2022-11-19T04:17:55.555Z,84.63
2022-11-19T04:27:59.019Z,89.37
2022-11-19T04:38:03.833Z,88.50
2022-11-19T04:48:07.964Z,83.87
2022-11-19T04:58:12.945Z,91.93
2022-11-19T05:08:16.417Z,87.93
2022-11-19T05:18:21.524Z,92.30
2022-11-19T05:28:38.119Z,91.20
2022-11-19T05:38:44.416Z,94.73
2022-11-19T05:48:48.114Z,82.60
2022-11-19T05:58:52.939Z,82.03
2022-11-19T06:08:56.449Z,83.00
2022-11-19T06:19:01.320Z,82.03
2022-11-19T06:29:04.776Z,88.13
2022-11-19T06:39:09.855Z,87.20
2022-11-19T06:49:19.586Z,89.43
2022-11-19T06:59:25.123Z,88.10
2022-11-19T07:09:29.833Z,82.17
2022-11-19T07:19:34.694Z,86.13
2022-11-19T07:29:38.866Z,87.00
2022-11-19T07:39:43.707Z,91.77
2022-11-19T07:49:47.094Z,90.37
2022-11-19T07:59:51.910Z,92.73
2022-11-19T08:09:55.414Z,92.77
2022-11-19T08:20:00.208Z,94.57
2022-11-19T08:30:03.689Z,101.87
2022-11-19T08:40:10.629Z,95.37
2022-11-19T08:50:14.117Z,99.70
2022-11-19T09:00:21.306Z,93.87
2022-11-19T09:22:26.684Z,142.52
2022-11-19T09:32:30.370Z,109.47
2022-11-19T09:42:44.646Z,107.07
2022-11-19T09:52:54.081Z,108.40
2022-11-19T10:03:00.519Z,100.67
2022-11-19T10:13:34.134Z,105.77
2022-11-19T10:23:52.883Z,108.13
2022-11-19T10:34:06.193Z,106.93
2022-11-19T10:44:43.719Z,106.57
2022-11-19T10:54:48.136Z,100.43
2022-11-19T11:05:10.746Z,104.00
2022-11-19T11:15:17.375Z,102.97
2022-11-19T11:25:28.595Z,95.63
2022-11-19T11:35:35.643Z,97.63
2022-11-19T11:45:40.712Z,95.77
2022-11-19T11:55:44.700Z,91.30
2022-11-19T12:06:02.224Z,90.53
2022-11-19T12:16:13.665Z,94.17
2022-11-19T12:26:28.382Z,87.27
2022-11-19T12:36:42.757Z,90.53
2022-11-19T12:46:58.161Z,93.97
2022-11-19T12:57:17.634Z,95.23
2022-11-19T13:07:28.199Z,89.67
2022-11-19T13:17:36.188Z,86.20
2022-11-19T13:27:41.249Z,88.40
2022-11-19T13:37:58.692Z,86.63
2022-11-19T13:48:12.005Z,93.97
2022-11-19T13:58:23.580Z,89.47
2022-11-19T14:08:52.657Z,90.30
2022-11-19T14:19:19.485Z,95.77
2022-11-19T14:29:56.961Z,115.23
2022-11-19T14:40:08.702Z,106.67
2022-11-19T14:50:27.818Z,91.60
2022-11-19T15:00:35.288Z,93.97
2022-11-19T15:11:04.938Z,95.27
2022-11-19T15:21:25.659Z,108.10
2022-11-19T15:31:52.523Z,108.13
2022-11-19T15:42:02.710Z,109.03
2022-11-19T15:52:18.489Z,101.47
2022-11-19T16:02:28.621Z,93.07
2022-11-19T16:12:50.714Z,113.10
2022-11-19T16:22:59.179Z,109.33
2022-11-19T16:33:04.029Z,99.00
2022-11-19T16:43:07.626Z,112.53
2022-11-19T16:53:12.510Z,107.17
2022-11-19T17:03:35.760Z,109.67
2022-11-19T17:13:40.669Z,115.30
2022-11-19T17:23:50.428Z,105.43
2022-11-19T17:33:57.607Z,100.53
2022-11-19T17:44:18.743Z,103.40
2022-11-19T17:54:24.681Z,113.43
2022-11-19T18:04:28.124Z,107.63
2022-11-19T18:14:33.082Z,102.77
2022-11-19T18:24:36.575Z,117.70
2022-11-19T18:34:41.509Z,100.30
2022-11-19T18:44:45.026Z,102.30
2022-11-19T18:54:49.917Z,107.87
2022-11-19T19:04:53.497Z,103.03
2022-11-19T19:14:58.972Z,101.60
2022-11-19T19:25:02.542Z,103.30
2022-11-19T19:35:09.141Z,131.07
2022-11-19T19:45:13.009Z,109.70
2022-11-19T19:55:18.206Z,107.83
2022-11-19T20:05:21.684Z,111.63
2022-11-19T20:15:26.551Z,109.77
2022-11-19T20:25:30.201Z,120.20
2022-11-19T20:35:35.068Z,101.93
2022-11-19T20:45:40.850Z,116.43
2022-11-19T20:56:04.570Z,111.07
2022-11-19T21:06:09.630Z,108.87
2022-11-19T21:16:16.828Z,113.37
2022-11-19T21:26:22.522Z,113.23
2022-11-19T21:36:27.737Z,117.33
2022-11-19T21:46:31.794Z,123.87
2022-11-19T21:56:38.802Z,110.77
2022-11-19T22:06:42.991Z,108.63
2022-11-19T22:16:47.850Z,112.67
2022-11-19T22:26:51.309Z,119.03
2022-11-19T22:36:56.565Z,138.90
2022-11-19T22:47:01.020Z,132.33
2022-11-19T22:57:05.949Z,114.53
2022-11-19T23:07:09.727Z,115.53
2022-11-19T23:17:14.574Z,113.23
2022-11-19T23:27:21.946Z,116.60
2022-11-19T23:37:27.178Z,122.73
2022-11-19T23:47:30.607Z,118.97
2022-11-19T23:57:35.448Z,115.03
